Terminal Aerodrome Forecast
Issued by NWS

Home | Current Version | Previous Version | Text Only | Print | Product List | Glossary On
Versions: 1 2 3 4 5 6 7 8 9 10 11 12 13 14 15 16 17 18 19 20
000
FTUS43 KEAX 250348 AAA
TAFSTJ
TAF AMD
KSTJ 250348Z 2504/2524 25008KT P6SM BKN035
     FM250600 17009KT P6SM -SHRA VCTS BKN025CB OVC090
      TEMPO 2507/2510 3SM TSRA
     FM251400 16011KT P6SM VCSH BKN010
     FM251900 18011KT P6SM VCSH BKN035=

USA.gov is the U.S. government's official web portal to all federal, state and local government web resources and services.